Lander, WY

2:37 AM MDT on July 30, 2016 (GMT -0600)
North Fork of the Popo Agie | | Change Station
Active Advisory: Fire Weather Warning

Elev 5801 ft 42.89 °N, 108.86 °W | Updated 3 minutes ago

Clear
Clear
58.6 °F
Feels Like 58.6 °F
N
2.0
Wind Variable Wind from SSW
Gusts 2.0 mph

Today
High -- | Low -- °F
--% Chance of Precip.
Yesterday
High -- | Low -- °F
Precip. -- in
Pressure 29.89 in
Visibility 10.0 miles
Clouds Clear
Dew Point 44 °F
Humidity 58%
Rainfall 0.00 in
Snow Depth Not available.
6:05 AM 8:37 PM
Waning Crescent, 15% visible
METAR KLND 300753Z AUTO 25008KT 10SM CLR 18/06 A3011 RMK AO2 SLP122 T01830056
Pressure 29.89 in
Visibility 10.0 miles
Clouds Clear
Dew Point 44 °F
Humidity 58%
Rainfall 0.00 in
Snow Depth Not available.
6:05 AM 8:37 PM
Waning Crescent, 15% visible
METAR KLND 300753Z AUTO 25008KT 10SM CLR 18/06 A3011 RMK AO2 SLP122 T01830056

10-Day Weather Forecast

Almanac

Astronomy

Jul. 30, 2016 Rise Set
Actual Time
Civil Twilight
Nautical Twilight
Astronomical Twilight
Moon
Length of Visible Light
Length of Day
Tomorrow will be .
, % of the Moon is Illuminated

Today's Extremes

State Highs State Lows

Community

WunderPhotos

Upload Photos

1,928,508 photos uploaded!

WunderBlog® & News

Nearby

Air Quality

  Air Quality AQ Index Pollutant
Not available.

Snow Depth

Station Depth Elevation

Earthquake Activity

City Distance Mag. Time & Date
Minimum magnitude displayed is 2.5.

Coastal Water Temperatures

Place Temperature

Stations

Nearby Weather Stations

Station Location Temp. Windchill Dew Point Humidity Wind Precip. Elev Updated Type
                   

Watches & Warnings

Fire Weather Warning
Issued: 1:55 AM MDT Jul. 30, 2016 – National Weather Service

... Red flag warning in effect from 1 PM this afternoon to 9 PM
MDT this evening for hot temperatures... low relative humidity and
a Haines index of 5 to 6 and breezy conditions...

The National Weather Service in Riverton has issued a red flag
warning... which is in effect from 1 PM this afternoon to 9 PM MDT
this evening. The Fire Weather Watch is no longer in effect.

* Wind... northwest 12 to 18 mph with gusts 25 mph.

* Humidity... as low as 9 percent.

* Thunderstorms... isolated dry lightning storms mainly from
Crowheart to DuBois in the late afternoon and evening.

* Haines... 5 to 6.

* Highest threat... is located from Crowheart to DuBois.

* Impacts... any fires that develop will likely spread rapidly.
Outdoor burning is not recommended.

Precautionary/preparedness actions...

A red flag warning means that critical fire weather conditions
are either occurring now... .or will shortly. A combination of
strong winds... low relative humidity... and warm temperatures can
contribute to extreme fire behavior.